Sarandi, Brazil
Current Conditions -  °F | °C
As of 1:00 PM on Wednesday 26 Nov 2014 (Local Time) from SBPF Reporting Station
Broken Clouds Broken Clouds  
Wind Chill: 73°   Ceiling: 3000
Heat Index: 73°   Visibility: 6mi
Dew Point: 63°   Wind: 16mph
Humidity: 69%   Direction: 160°SSE
Pressure: 29.88"   Gusts: NA
Location:  27.94°S, 52.92°W
Report Text: SBPF 261500Z 16014KT 9999 BKN030 23/17 Q1012
Loading
Personal Weather Stations






























Interactive Weather Map New forecast layout! Learn more

10-Day Weather Forecast

Advertisements
Track Severe Weather on mobile